createdAt,value
2023-05-22T00:00:54.555Z,34.37
2023-05-22T00:01:54.575Z,34.38
2023-05-22T00:02:54.667Z,34.38
2023-05-22T00:03:54.601Z,34.35
2023-05-22T00:04:54.679Z,34.37
2023-05-22T00:05:54.568Z,34.39
2023-05-22T00:06:54.543Z,34.39
2023-05-22T00:07:54.543Z,34.40
2023-05-22T00:08:54.531Z,34.40
2023-05-22T00:09:54.532Z,34.38
2023-05-22T00:10:54.583Z,34.41
2023-05-22T00:11:54.532Z,34.39
2023-05-22T00:12:54.543Z,34.39
2023-05-22T00:13:54.535Z,34.40
2023-05-22T00:14:54.526Z,34.39
2023-05-22T00:15:54.526Z,34.38
2023-05-22T00:16:54.570Z,34.39
2023-05-22T00:17:54.557Z,34.38
2023-05-22T00:18:54.563Z,34.39
2023-05-22T00:19:54.509Z,34.38
2023-05-22T00:20:54.515Z,34.38
2023-05-22T00:21:54.534Z,34.39
2023-05-22T00:22:54.524Z,34.39
2023-05-22T00:23:54.480Z,34.41
2023-05-22T00:24:54.475Z,34.39
2023-05-22T00:25:54.481Z,34.41
2023-05-22T00:26:54.475Z,34.42
2023-05-22T00:27:54.482Z,34.41
2023-05-22T00:28:54.479Z,34.41
2023-05-22T00:29:54.478Z,34.39
2023-05-22T00:30:54.482Z,34.42
2023-05-22T00:31:54.482Z,34.38
2023-05-22T00:32:54.542Z,34.42
2023-05-22T00:33:54.501Z,34.41
2023-05-22T00:34:54.477Z,34.41
2023-05-22T00:35:54.477Z,34.44
2023-05-22T00:36:54.477Z,34.41
2023-05-22T00:37:54.478Z,34.42
2023-05-22T00:38:54.461Z,34.42
2023-05-22T00:39:54.462Z,34.44
2023-05-22T00:40:54.444Z,34.45
2023-05-22T00:41:54.510Z,34.44
2023-05-22T00:42:54.473Z,34.48
2023-05-22T00:43:54.433Z,34.44
2023-05-22T00:44:54.425Z,34.46
2023-05-22T00:45:54.426Z,34.46
2023-05-22T00:46:54.488Z,34.48
2023-05-22T00:47:54.504Z,34.49
2023-05-22T00:48:54.394Z,34.44
2023-05-22T00:49:54.392Z,34.48
2023-05-22T00:50:54.393Z,34.45
2023-05-22T00:51:54.395Z,34.45
2023-05-22T00:52:54.392Z,34.48
2023-05-22T00:53:54.376Z,34.47
2023-05-22T00:54:54.375Z,34.47
2023-05-22T00:55:54.368Z,34.46
2023-05-22T00:56:54.375Z,34.45
2023-05-22T00:57:54.382Z,34.44
2023-05-22T00:58:54.367Z,34.44
2023-05-22T00:59:54.368Z,34.44
2023-05-22T01:00:54.348Z,34.44
2023-05-22T01:01:54.396Z,34.42
2023-05-22T01:02:54.441Z,34.43
2023-05-22T01:03:54.505Z,34.44
2023-05-22T01:04:54.363Z,34.44
2023-05-22T01:05:54.358Z,34.48
2023-05-22T01:06:54.359Z,34.46
2023-05-22T01:07:54.350Z,34.45
2023-05-22T01:08:54.360Z,34.46
2023-05-22T01:09:54.350Z,34.48
2023-05-22T01:10:54.357Z,34.49
2023-05-22T01:11:54.358Z,34.51
2023-05-22T01:12:54.351Z,34.47
2023-05-22T01:13:54.344Z,34.48
2023-05-22T01:14:54.339Z,34.49
2023-05-22T01:15:54.394Z,34.46
2023-05-22T01:16:54.345Z,34.49
2023-05-22T01:17:54.459Z,34.51
2023-05-22T01:18:54.384Z,34.47
2023-05-22T01:19:54.385Z,34.47
2023-05-22T01:20:54.367Z,34.48
2023-05-22T01:21:54.377Z,34.49
2023-05-22T01:22:54.388Z,34.51
2023-05-22T01:23:54.398Z,34.50
2023-05-22T01:24:54.386Z,34.47
2023-05-22T01:25:54.375Z,34.47
2023-05-22T01:26:54.374Z,34.47
2023-05-22T01:27:54.384Z,34.49
2023-05-22T01:28:54.393Z,34.45
2023-05-22T01:29:54.395Z,34.49
2023-05-22T01:30:54.483Z,34.47
2023-05-22T01:31:54.406Z,34.48
2023-05-22T01:32:54.515Z,34.46
2023-05-22T01:33:54.620Z,34.49
2023-05-22T01:34:54.449Z,34.48
2023-05-22T01:35:54.461Z,34.49
2023-05-22T01:36:54.466Z,34.51
2023-05-22T01:37:54.482Z,34.53
2023-05-22T01:38:54.505Z,34.54
2023-05-22T01:39:54.511Z,34.52
2023-05-22T01:40:54.516Z,34.52
2023-05-22T01:41:54.541Z,34.54
2023-05-22T01:42:54.548Z,34.52
2023-05-22T01:43:54.559Z,34.53
2023-05-22T01:44:54.565Z,34.51
2023-05-22T01:45:54.626Z,34.53
2023-05-22T01:46:54.605Z,34.52
2023-05-22T01:47:54.696Z,34.53
2023-05-22T01:48:54.637Z,34.51
2023-05-22T01:49:54.657Z,34.52
2023-05-22T01:50:54.676Z,34.55
2023-05-22T01:51:54.684Z,34.55
2023-05-22T01:52:54.692Z,34.56
2023-05-22T01:53:54.709Z,34.54
2023-05-22T01:54:54.696Z,34.56
2023-05-22T01:55:54.709Z,34.53
2023-05-22T01:56:54.718Z,34.51
2023-05-22T01:57:54.740Z,34.51
2023-05-22T01:58:54.751Z,34.51
2023-05-22T01:59:54.750Z,34.54
2023-05-22T02:00:54.864Z,34.52
2023-05-22T02:01:54.796Z,34.53
2023-05-22T02:02:54.851Z,34.51
2023-05-22T02:03:54.833Z,34.52
2023-05-22T02:04:54.834Z,34.52
2023-05-22T02:05:54.860Z,34.51
2023-05-22T02:06:54.890Z,34.53
2023-05-22T02:07:54.906Z,34.53
2023-05-22T02:08:54.908Z,34.54
2023-05-22T02:09:54.941Z,34.53
2023-05-22T02:10:54.935Z,34.51
2023-05-22T02:11:54.977Z,34.53
2023-05-22T02:12:54.974Z,34.54
2023-05-22T02:13:54.978Z,34.51
2023-05-22T02:14:54.984Z,34.53
2023-05-22T02:15:55.050Z,34.53
2023-05-22T02:16:55.030Z,34.51
2023-05-22T02:17:55.080Z,34.54
2023-05-22T02:18:55.067Z,34.53
2023-05-22T02:19:55.054Z,34.53
2023-05-22T02:20:55.092Z,34.54
2023-05-22T02:21:55.104Z,34.52
2023-05-22T02:22:55.122Z,34.54
2023-05-22T02:23:55.128Z,34.54
2023-05-22T02:24:55.154Z,34.53
2023-05-22T02:25:55.190Z,34.52
2023-05-22T02:26:55.201Z,34.52
2023-05-22T02:27:55.221Z,34.51
2023-05-22T02:28:55.256Z,34.52
2023-05-22T02:29:55.283Z,34.52
2023-05-22T02:30:55.327Z,34.52
2023-05-22T02:31:55.300Z,34.53
2023-05-22T02:32:55.366Z,34.52
2023-05-22T02:33:55.351Z,34.53
2023-05-22T02:34:55.371Z,34.51
2023-05-22T02:35:55.380Z,34.50
2023-05-22T02:36:55.385Z,34.54
2023-05-22T02:37:55.419Z,34.53
2023-05-22T02:38:55.497Z,34.53
2023-05-22T02:39:55.467Z,34.52
2023-05-22T02:40:55.501Z,34.52
2023-05-22T02:41:55.515Z,34.50
2023-05-22T02:42:55.561Z,34.53
2023-05-22T02:43:55.548Z,34.52
2023-05-22T02:44:55.580Z,34.51
2023-05-22T02:45:55.621Z,34.51
2023-05-22T02:46:55.820Z,34.52
2023-05-22T02:47:55.775Z,34.51
2023-05-22T02:48:55.757Z,34.50
2023-05-22T02:49:55.776Z,34.51
2023-05-22T02:50:55.868Z,34.51
2023-05-22T02:51:55.821Z,34.52
2023-05-22T02:52:55.827Z,34.49
2023-05-22T02:53:55.853Z,34.51
2023-05-22T02:54:55.878Z,34.51
2023-05-22T02:55:55.883Z,34.51
2023-05-22T02:56:55.904Z,34.50
2023-05-22T02:57:55.919Z,34.49
2023-05-22T02:58:55.933Z,34.51
2023-05-22T02:59:55.955Z,34.49
2023-05-22T03:00:55.972Z,34.50
2023-05-22T03:01:56.034Z,34.50
2023-05-22T03:02:56.094Z,34.49
2023-05-22T03:03:56.185Z,34.50
2023-05-22T03:04:56.046Z,34.48
2023-05-22T03:05:56.071Z,34.50
2023-05-22T03:06:56.085Z,34.50
2023-05-22T03:07:56.135Z,34.52
2023-05-22T03:08:56.124Z,34.50
2023-05-22T03:09:56.157Z,34.52
2023-05-22T03:10:56.159Z,34.51
2023-05-22T03:11:56.173Z,34.50
2023-05-22T03:12:56.218Z,34.50
2023-05-22T03:13:56.223Z,34.50
2023-05-22T03:14:56.247Z,34.50
2023-05-22T03:15:56.288Z,34.50
2023-05-22T03:16:56.307Z,34.51
2023-05-22T03:17:56.523Z,34.50
2023-05-22T03:18:56.380Z,34.48
2023-05-22T03:19:56.388Z,34.49
2023-05-22T03:20:56.415Z,34.48
2023-05-22T03:21:56.393Z,34.48
2023-05-22T03:22:56.395Z,34.49
2023-05-22T03:23:56.419Z,34.48
2023-05-22T03:24:56.485Z,34.46
2023-05-22T03:25:56.442Z,34.48
2023-05-22T03:26:56.489Z,34.46
2023-05-22T03:27:56.498Z,34.47
2023-05-22T03:28:56.527Z,34.44
2023-05-22T03:29:56.534Z,34.43
2023-05-22T03:30:56.581Z,34.48
2023-05-22T03:31:56.709Z,34.51
2023-05-22T03:32:56.718Z,34.47
2023-05-22T03:33:56.720Z,34.48
2023-05-22T03:34:56.785Z,34.47
2023-05-22T03:35:56.658Z,34.51
2023-05-22T03:36:56.728Z,34.45
2023-05-22T03:37:56.668Z,34.44
2023-05-22T03:38:56.701Z,34.45
2023-05-22T03:39:56.674Z,34.45
2023-05-22T03:40:56.626Z,34.44
2023-05-22T03:41:56.598Z,34.45
2023-05-22T03:42:56.630Z,34.45
2023-05-22T03:43:56.584Z,34.43
2023-05-22T03:44:56.601Z,34.45
2023-05-22T03:45:56.617Z,34.47
2023-05-22T03:46:56.573Z,34.45
2023-05-22T03:47:56.606Z,34.46
2023-05-22T03:48:56.720Z,34.47
2023-05-22T03:49:56.719Z,34.46
2023-05-22T03:50:56.669Z,34.45
2023-05-22T03:51:56.713Z,34.42
2023-05-22T03:52:56.777Z,34.44
2023-05-22T03:53:56.721Z,34.43
2023-05-22T03:54:56.803Z,34.45
2023-05-22T03:55:56.759Z,34.45
2023-05-22T03:56:56.774Z,34.44
2023-05-22T03:57:56.806Z,34.43
2023-05-22T03:58:56.832Z,34.43
2023-05-22T03:59:56.876Z,34.45
2023-05-22T04:00:56.869Z,34.41
2023-05-22T04:01:56.972Z,34.43
2023-05-22T04:03:56.941Z,34.42
2023-05-22T04:04:57.099Z,34.43
2023-05-22T04:05:57.094Z,34.44
2023-05-22T04:06:57.033Z,34.44
2023-05-22T04:07:57.066Z,34.39
2023-05-22T04:08:57.085Z,34.44
2023-05-22T04:09:57.120Z,34.42
2023-05-22T04:10:57.138Z,34.43
2023-05-22T04:11:57.156Z,34.42
2023-05-22T04:12:57.193Z,34.42
2023-05-22T04:13:57.225Z,34.43
2023-05-22T04:14:57.307Z,34.43
2023-05-22T04:15:57.267Z,34.42
2023-05-22T04:16:57.278Z,34.41
2023-05-22T04:17:57.313Z,34.44
2023-05-22T04:18:57.332Z,34.43
2023-05-22T04:19:57.350Z,34.41
2023-05-22T04:20:57.382Z,34.44
2023-05-22T04:21:57.400Z,34.42
2023-05-22T04:22:57.447Z,34.41
2023-05-22T04:23:57.451Z,34.41
2023-05-22T04:24:57.494Z,34.41
2023-05-22T04:25:57.485Z,34.42
2023-05-22T04:26:57.510Z,34.41
2023-05-22T04:27:57.535Z,34.39
2023-05-22T04:28:57.564Z,34.42
2023-05-22T04:29:57.596Z,34.44
2023-05-22T04:30:57.689Z,34.41
2023-05-22T04:31:57.688Z,34.41
2023-05-22T04:32:57.738Z,34.39
2023-05-22T04:33:57.705Z,34.40
2023-05-22T04:34:57.765Z,34.41
2023-05-22T04:35:57.810Z,34.41
2023-05-22T04:36:57.873Z,34.40
2023-05-22T04:37:57.930Z,34.41
2023-05-22T04:38:57.985Z,34.42
2023-05-22T04:39:58.039Z,34.42
2023-05-22T04:40:58.094Z,34.39
2023-05-22T04:41:58.114Z,34.42
2023-05-22T04:42:58.224Z,34.41
2023-05-22T04:43:58.177Z,34.42
2023-05-22T04:44:58.257Z,34.40
2023-05-22T04:45:58.237Z,34.40
2023-05-22T04:46:58.299Z,34.39
2023-05-22T04:47:58.325Z,34.43
2023-05-22T04:48:58.322Z,34.40
2023-05-22T04:49:58.353Z,34.38
2023-05-22T04:50:58.383Z,34.39
2023-05-22T04:51:58.403Z,34.37
2023-05-22T04:52:58.453Z,34.39
2023-05-22T04:53:58.522Z,34.38
2023-05-22T04:55:00.465Z,34.38
2023-05-22T04:55:58.578Z,34.37
2023-05-22T04:56:58.594Z,34.39
2023-05-22T04:57:58.635Z,34.37
2023-05-22T04:58:58.710Z,34.38
2023-05-22T04:59:58.667Z,34.40
2023-05-22T05:00:58.730Z,34.38
2023-05-22T05:01:58.738Z,34.39
2023-05-22T05:02:58.829Z,34.38
2023-05-22T05:03:58.792Z,34.39
2023-05-22T05:04:58.812Z,34.39
2023-05-22T05:05:58.856Z,34.38
2023-05-22T05:06:58.893Z,34.39
2023-05-22T05:07:58.922Z,34.38
2023-05-22T05:08:58.950Z,34.40
2023-05-22T05:09:58.970Z,34.37
2023-05-22T05:10:59.009Z,34.39
2023-05-22T05:11:59.035Z,34.41
2023-05-22T05:12:59.074Z,34.38
2023-05-22T05:13:59.065Z,34.39
2023-05-22T05:14:59.065Z,34.39
2023-05-22T05:15:59.069Z,34.40
2023-05-22T05:16:59.127Z,34.41
2023-05-22T05:17:59.119Z,34.36
2023-05-22T05:18:59.105Z,34.39
2023-05-22T05:19:59.079Z,34.37
2023-05-22T05:20:59.086Z,34.38
2023-05-22T05:21:59.072Z,34.38
2023-05-22T05:22:59.087Z,34.39
2023-05-22T05:23:59.065Z,34.40
2023-05-22T05:24:59.067Z,34.38
2023-05-22T05:25:59.058Z,34.40
2023-05-22T05:26:59.052Z,34.40
2023-05-22T05:27:59.038Z,34.40
2023-05-22T05:28:59.041Z,34.39
2023-05-22T05:29:59.035Z,34.39
2023-05-22T05:30:59.133Z,34.39
2023-05-22T05:31:59.114Z,34.38
2023-05-22T05:32:59.058Z,34.38
2023-05-22T05:33:59.014Z,34.37
2023-05-22T05:34:59.006Z,34.43
2023-05-22T05:35:59.015Z,34.51
2023-05-22T05:36:59.078Z,34.74
2023-05-22T05:37:59.003Z,35.17
2023-05-22T05:38:59.013Z,35.59
2023-05-22T05:39:59.025Z,36.01
2023-05-22T05:40:58.962Z,36.10
2023-05-22T05:41:58.977Z,36.50
2023-05-22T05:42:59.002Z,36.76
2023-05-22T05:43:58.955Z,36.94
2023-05-22T05:44:58.980Z,37.00
2023-05-22T05:45:59.074Z,37.07
2023-05-22T05:46:59.089Z,37.24
2023-05-22T05:47:59.027Z,37.55
2023-05-22T05:48:59.001Z,37.60
2023-05-22T05:49:58.988Z,37.92
2023-05-22T05:50:59.002Z,38.10
2023-05-22T05:51:59.109Z,38.26
2023-05-22T05:52:59.005Z,38.44
2023-05-22T05:53:58.973Z,38.41
2023-05-22T05:54:58.966Z,38.57
2023-05-22T05:55:59.024Z,38.57
2023-05-22T05:56:58.981Z,38.75
2023-05-22T05:57:58.976Z,38.87
2023-05-22T05:58:59.018Z,38.91
2023-05-22T05:59:59.038Z,38.29
2023-05-22T06:00:59.083Z,37.86
2023-05-22T06:01:59.117Z,37.57
2023-05-22T06:02:59.237Z,37.70
2023-05-22T06:03:59.250Z,37.59
2023-05-22T06:04:59.178Z,37.60
2023-05-22T06:05:59.144Z,37.67
2023-05-22T06:06:59.135Z,37.54
2023-05-22T06:07:59.110Z,37.87
2023-05-22T06:08:59.064Z,37.87
2023-05-22T06:09:59.068Z,37.80
2023-05-22T06:10:59.039Z,37.50
2023-05-22T06:11:59.054Z,37.58
2023-05-22T06:12:59.034Z,38.41
2023-05-22T06:13:59.006Z,38.25
2023-05-22T06:14:59.031Z,38.30
2023-05-22T06:16:02.150Z,38.73
2023-05-22T06:17:00.060Z,38.88
2023-05-22T06:17:59.032Z,38.79
2023-05-22T06:18:59.109Z,38.78
2023-05-22T06:19:58.918Z,38.98
2023-05-22T06:20:58.909Z,39.08
2023-05-22T06:21:58.881Z,39.17
2023-05-22T06:22:58.911Z,39.18
2023-05-22T06:23:58.881Z,39.28
2023-05-22T06:24:58.855Z,39.22
2023-05-22T06:25:58.821Z,39.30
2023-05-22T06:26:58.826Z,39.46
2023-05-22T06:27:58.812Z,39.44
2023-05-22T06:28:58.787Z,39.43
2023-05-22T06:29:58.758Z,39.49
2023-05-22T06:30:58.726Z,39.53
2023-05-22T06:31:58.741Z,39.57
2023-05-22T06:32:58.773Z,39.63
2023-05-22T06:33:58.782Z,39.68
2023-05-22T06:34:58.636Z,39.77
2023-05-22T06:35:58.659Z,39.82
2023-05-22T06:36:58.702Z,39.94
2023-05-22T06:37:58.746Z,39.97
2023-05-22T06:38:58.777Z,40.03
2023-05-22T06:39:58.807Z,40.02
2023-05-22T06:40:58.848Z,40.06
2023-05-22T06:41:58.921Z,39.88
2023-05-22T06:42:58.949Z,40.01
2023-05-22T06:43:59.025Z,40.19
2023-05-22T06:44:59.037Z,39.82
2023-05-22T06:45:59.122Z,40.21
2023-05-22T06:46:59.159Z,40.14
2023-05-22T06:47:59.168Z,40.32
2023-05-22T06:48:59.167Z,40.20
2023-05-22T06:49:59.163Z,40.15
2023-05-22T06:50:59.214Z,40.15
2023-05-22T06:51:59.246Z,40.16
2023-05-22T06:52:59.299Z,40.14
2023-05-22T06:53:59.337Z,40.21
2023-05-22T06:54:59.353Z,40.30
2023-05-22T06:55:59.354Z,40.17
2023-05-22T06:56:59.383Z,40.17
2023-05-22T06:57:59.408Z,40.15
2023-05-22T06:58:59.410Z,40.14
2023-05-22T06:59:59.424Z,40.09
2023-05-22T07:00:59.491Z,40.10
2023-05-22T07:01:59.489Z,40.11
2023-05-22T07:02:59.574Z,40.10
2023-05-22T07:03:59.485Z,40.04
2023-05-22T07:04:59.561Z,40.01
2023-05-22T07:05:59.653Z,40.04
2023-05-22T07:06:59.661Z,40.00
2023-05-22T07:07:59.569Z,39.94
2023-05-22T07:08:59.609Z,40.01
2023-05-22T07:09:59.608Z,40.00
2023-05-22T07:10:59.631Z,40.01
2023-05-22T07:11:59.601Z,40.22
2023-05-22T07:12:59.613Z,39.87
2023-05-22T07:13:59.616Z,40.15
2023-05-22T07:14:59.649Z,39.97
2023-05-22T07:15:59.750Z,40.21
2023-05-22T07:16:59.667Z,39.99
2023-05-22T07:17:59.701Z,39.95
2023-05-22T07:18:59.712Z,39.87
2023-05-22T07:19:59.654Z,39.86
2023-05-22T07:20:59.657Z,39.76
2023-05-22T07:21:59.701Z,39.83
2023-05-22T07:22:59.719Z,39.80
2023-05-22T07:23:59.670Z,39.79
2023-05-22T07:24:59.663Z,39.71
2023-05-22T07:25:59.666Z,39.75
2023-05-22T07:26:59.685Z,39.69
2023-05-22T07:27:59.661Z,39.63
2023-05-22T07:28:59.669Z,39.56
2023-05-22T07:29:59.669Z,39.49
2023-05-22T07:30:59.664Z,39.50
2023-05-22T07:31:59.805Z,39.42
2023-05-22T07:32:59.687Z,39.40
2023-05-22T07:33:59.644Z,39.24
2023-05-22T07:34:59.674Z,39.31
2023-05-22T07:35:59.642Z,39.18
2023-05-22T07:36:59.645Z,39.21
2023-05-22T07:37:59.609Z,39.24
2023-05-22T07:38:59.589Z,39.22
2023-05-22T07:39:59.556Z,38.14
2023-05-22T07:40:59.515Z,38.96
2023-05-22T07:42:00.274Z,38.81
2023-05-22T07:42:59.476Z,38.95
2023-05-22T07:43:59.432Z,38.94
2023-05-22T07:44:59.427Z,39.04
2023-05-22T07:45:59.434Z,39.20
2023-05-22T07:46:59.442Z,39.15
2023-05-22T07:47:59.347Z,39.06
2023-05-22T07:48:59.290Z,39.28
2023-05-22T07:49:59.342Z,39.16
2023-05-22T07:50:59.273Z,39.07
2023-05-22T07:51:59.192Z,39.08
2023-05-22T07:52:59.186Z,39.00
2023-05-22T07:54:59.095Z,38.96
2023-05-22T07:55:59.074Z,39.14
2023-05-22T07:56:59.082Z,38.93
2023-05-22T07:57:59.052Z,39.01
2023-05-22T07:58:59.053Z,39.18
2023-05-22T07:59:58.962Z,38.96
2023-05-22T08:00:58.941Z,38.61
2023-05-22T08:01:58.926Z,36.71
2023-05-22T08:02:58.976Z,36.16
2023-05-22T08:03:58.964Z,35.93
2023-05-22T08:04:58.829Z,36.56
2023-05-22T08:05:58.775Z,37.08
2023-05-22T08:06:58.747Z,37.36
2023-05-22T08:07:58.738Z,37.13
2023-05-22T08:08:58.682Z,37.02
2023-05-22T08:09:58.647Z,37.79
2023-05-22T08:11:58.584Z,37.95
2023-05-22T08:12:58.581Z,37.21
2023-05-22T08:13:58.562Z,37.56
2023-05-22T08:14:58.493Z,37.58
2023-05-22T08:16:00.394Z,37.73
2023-05-22T08:16:58.465Z,37.49
2023-05-22T08:17:58.431Z,37.49
2023-05-22T08:18:58.473Z,37.59
2023-05-22T08:19:58.485Z,37.09
2023-05-22T08:20:58.294Z,37.06
2023-05-22T08:21:58.406Z,37.46
2023-05-22T08:22:58.256Z,37.42
2023-05-22T08:23:58.181Z,37.43
2023-05-22T08:24:58.148Z,37.48
2023-05-22T08:25:58.113Z,37.32
2023-05-22T08:26:58.385Z,36.50
2023-05-22T08:27:58.052Z,36.62
2023-05-22T08:28:58.003Z,37.00
2023-05-22T08:29:57.968Z,36.47
2023-05-22T08:30:57.942Z,37.00
2023-05-22T08:31:57.958Z,37.44
2023-05-22T08:32:57.923Z,37.13
2023-05-22T08:33:57.834Z,36.92
2023-05-22T08:34:57.803Z,36.62
2023-05-22T08:35:57.742Z,36.55
2023-05-22T08:36:57.711Z,36.35
2023-05-22T08:37:57.670Z,36.05
2023-05-22T08:38:57.635Z,35.79
2023-05-22T08:39:57.600Z,35.63
2023-05-22T08:40:57.572Z,35.39
2023-05-22T08:41:57.557Z,35.08
2023-05-22T08:42:57.703Z,34.91
2023-05-22T08:43:57.594Z,34.88
2023-05-22T08:44:57.457Z,34.63
2023-05-22T08:45:57.459Z,34.48
2023-05-22T08:46:57.449Z,34.42
2023-05-22T08:47:57.413Z,34.29
2023-05-22T08:48:57.321Z,34.21
2023-05-22T08:49:57.321Z,34.21
2023-05-22T08:50:57.322Z,34.09
2023-05-22T08:51:57.325Z,34.05
2023-05-22T08:52:57.252Z,34.17
2023-05-22T08:53:57.257Z,34.19
2023-05-22T08:54:57.234Z,34.16
2023-05-22T08:55:57.209Z,34.10
2023-05-22T08:56:57.832Z,34.03
2023-05-22T08:57:57.239Z,34.00
2023-05-22T08:58:57.234Z,34.01
2023-05-22T08:59:57.209Z,33.99
2023-05-22T09:00:57.225Z,33.90
2023-05-22T09:01:57.204Z,33.83
2023-05-22T09:02:57.340Z,33.76
2023-05-22T09:03:57.230Z,33.70
2023-05-22T09:04:57.205Z,33.72
2023-05-22T09:05:57.165Z,33.69
2023-05-22T09:06:57.181Z,33.66
2023-05-22T09:08:02.529Z,33.63
2023-05-22T09:08:58.096Z,33.65
2023-05-22T09:09:57.092Z,33.65
2023-05-22T09:10:57.098Z,33.68
2023-05-22T09:11:57.017Z,33.65
2023-05-22T09:12:57.056Z,33.25
2023-05-22T09:13:57.007Z,33.34
2023-05-22T09:14:56.918Z,33.25
2023-05-22T09:15:56.881Z,33.21
2023-05-22T09:16:56.892Z,33.27
2023-05-22T09:17:57.007Z,33.28
2023-05-22T09:18:56.818Z,33.34
2023-05-22T09:19:56.843Z,33.15
2023-05-22T09:20:56.794Z,33.39
2023-05-22T09:21:56.728Z,33.30
2023-05-22T09:22:56.745Z,33.22
2023-05-22T09:23:56.700Z,33.19
2023-05-22T09:24:56.624Z,33.12
2023-05-22T09:25:56.599Z,32.98
2023-05-22T09:26:56.565Z,32.98
2023-05-22T09:27:56.601Z,32.95
2023-05-22T09:28:56.497Z,32.96
2023-05-22T09:29:56.514Z,33.01
2023-05-22T09:30:56.588Z,33.00
2023-05-22T09:31:56.465Z,32.96
2023-05-22T09:32:56.456Z,32.91
2023-05-22T09:33:56.347Z,32.89
2023-05-22T09:34:56.325Z,32.94
2023-05-22T09:35:56.288Z,32.94
2023-05-22T09:36:56.243Z,32.96
2023-05-22T09:37:56.287Z,32.97
2023-05-22T09:38:56.344Z,32.98
2023-05-22T09:39:56.161Z,33.04
2023-05-22T09:40:56.135Z,32.96
2023-05-22T09:41:56.153Z,33.03
2023-05-22T09:42:56.109Z,33.70
2023-05-22T09:43:56.109Z,33.78
2023-05-22T09:44:56.035Z,33.98
2023-05-22T09:45:56.075Z,33.85
2023-05-22T09:46:56.234Z,34.49
2023-05-22T09:47:56.116Z,34.66
2023-05-22T09:48:56.021Z,34.75
2023-05-22T09:49:56.003Z,35.05
2023-05-22T09:50:56.037Z,33.66
2023-05-22T09:51:55.920Z,33.40
2023-05-22T09:52:55.895Z,32.68
2023-05-22T09:53:55.863Z,31.93
2023-05-22T09:54:55.863Z,31.34
2023-05-22T09:55:55.793Z,31.02
2023-05-22T09:56:55.758Z,30.87
2023-05-22T09:57:55.745Z,30.80
2023-05-22T09:58:55.693Z,31.21
2023-05-22T09:59:55.912Z,31.46
2023-05-22T10:00:55.705Z,31.27
2023-05-22T10:01:55.659Z,31.16
2023-05-22T10:02:55.615Z,30.80
2023-05-22T10:03:55.562Z,31.22
2023-05-22T10:04:55.531Z,31.11
2023-05-22T10:05:55.987Z,29.31
2023-05-22T10:06:55.460Z,29.63
2023-05-22T10:07:55.571Z,29.70
2023-05-22T10:08:55.405Z,30.04
2023-05-22T10:09:55.390Z,30.38
2023-05-22T10:10:55.332Z,30.70
2023-05-22T10:11:55.311Z,30.50
2023-05-22T10:12:55.296Z,29.39
2023-05-22T10:13:55.253Z,28.82
2023-05-22T10:14:55.211Z,29.57
2023-05-22T10:15:55.276Z,29.93
2023-05-22T10:16:55.154Z,29.68
2023-05-22T10:17:55.253Z,29.90
2023-05-22T10:18:55.231Z,30.03
2023-05-22T10:19:55.017Z,30.10
2023-05-22T10:20:54.989Z,29.73
2023-05-22T10:21:54.992Z,29.18
2023-05-22T10:22:54.942Z,29.14
2023-05-22T10:23:54.880Z,29.69
2023-05-22T10:24:54.979Z,29.97
2023-05-22T10:25:54.825Z,30.10
2023-05-22T10:26:54.787Z,30.33
2023-05-22T10:27:54.756Z,30.59
2023-05-22T10:28:54.711Z,30.61
2023-05-22T10:29:54.707Z,30.86
2023-05-22T10:30:54.623Z,30.96
2023-05-22T10:31:54.592Z,30.98
2023-05-22T10:32:54.664Z,31.15
2023-05-22T10:33:54.582Z,31.22
2023-05-22T10:34:54.585Z,31.44
2023-05-22T10:35:54.453Z,31.59
2023-05-22T10:36:56.037Z,31.53
2023-05-22T10:37:55.472Z,31.44
2023-05-22T10:38:54.339Z,31.34
2023-05-22T10:39:55.003Z,31.35
2023-05-22T10:40:54.273Z,31.41
2023-05-22T10:41:54.234Z,31.56
2023-05-22T10:42:54.221Z,31.75
2023-05-22T10:43:54.164Z,31.80
2023-05-22T10:44:54.139Z,32.25
2023-05-22T10:45:54.137Z,32.30
2023-05-22T10:46:54.073Z,32.38
2023-05-22T10:47:54.123Z,32.67
2023-05-22T10:48:54.069Z,32.87
2023-05-22T10:49:54.081Z,32.88
2023-05-22T10:50:54.136Z,33.36
2023-05-22T10:51:53.994Z,33.37
2023-05-22T10:52:53.951Z,33.29
2023-05-22T10:53:53.925Z,33.37
2023-05-22T10:54:53.878Z,33.51
2023-05-22T10:55:53.826Z,33.80
2023-05-22T10:56:53.757Z,33.67
2023-05-22T10:57:53.748Z,33.76
2023-05-22T10:58:53.713Z,33.65
2023-05-22T10:59:53.734Z,33.98
2023-05-22T11:00:53.706Z,34.24
2023-05-22T11:01:53.772Z,34.24
2023-05-22T11:02:55.258Z,33.93
2023-05-22T11:03:53.731Z,34.09
2023-05-22T11:04:53.773Z,34.40
2023-05-22T11:05:53.619Z,34.50
2023-05-22T11:06:53.572Z,34.49
2023-05-22T11:07:53.593Z,34.51
2023-05-22T11:08:53.490Z,34.54
2023-05-22T11:09:53.418Z,34.32
2023-05-22T11:10:53.393Z,34.43
2023-05-22T11:11:53.336Z,34.62
2023-05-22T11:12:53.283Z,34.66
2023-05-22T11:13:53.229Z,34.74
2023-05-22T11:14:53.192Z,34.58
2023-05-22T11:15:53.137Z,34.74
2023-05-22T11:16:53.190Z,33.72
2023-05-22T11:17:53.071Z,33.39
2023-05-22T11:18:53.014Z,32.93
2023-05-22T11:19:52.986Z,32.57
2023-05-22T11:20:52.901Z,33.14
2023-05-22T11:21:52.833Z,33.12
2023-05-22T11:22:52.885Z,32.72
2023-05-22T11:23:52.739Z,32.63
2023-05-22T11:24:52.693Z,32.00
2023-05-22T11:25:52.649Z,31.95
2023-05-22T11:26:52.609Z,31.60
2023-05-22T11:27:53.023Z,31.95
2023-05-22T11:28:52.507Z,32.01
2023-05-22T11:29:52.475Z,32.02
2023-05-22T11:30:52.460Z,32.27
2023-05-22T11:31:52.380Z,30.15
2023-05-22T11:32:52.368Z,30.71
2023-05-22T11:33:52.265Z,30.37
2023-05-22T11:34:52.238Z,29.77
2023-05-22T11:35:52.183Z,29.44
2023-05-22T11:36:52.133Z,29.46
2023-05-22T11:37:52.083Z,29.47
2023-05-22T11:38:52.153Z,29.67
2023-05-22T11:39:52.002Z,29.96
2023-05-22T11:40:51.956Z,30.06
2023-05-22T11:41:51.953Z,30.04
2023-05-22T11:42:51.955Z,30.21
2023-05-22T11:43:51.951Z,30.38
2023-05-22T11:44:51.965Z,30.55
2023-05-22T11:45:51.956Z,30.56
2023-05-22T11:46:51.917Z,30.70
2023-05-22T11:47:51.902Z,30.73
2023-05-22T11:48:51.845Z,30.77
2023-05-22T11:49:51.815Z,30.76
2023-05-22T11:50:51.831Z,30.79
2023-05-22T11:51:51.729Z,30.74
2023-05-22T11:52:51.696Z,30.79
2023-05-22T11:53:51.687Z,30.84
2023-05-22T11:54:51.721Z,30.86
2023-05-22T11:55:51.613Z,30.87
2023-05-22T11:56:51.691Z,30.91
2023-05-22T11:57:51.642Z,30.92
2023-05-22T11:58:51.562Z,30.96
2023-05-22T11:59:51.551Z,30.99
2023-05-22T12:00:51.598Z,30.98
2023-05-22T12:01:51.612Z,31.01
2023-05-22T12:02:51.683Z,30.98
2023-05-22T12:03:51.662Z,30.99
2023-05-22T12:04:51.456Z,31.06
2023-05-22T12:05:51.487Z,31.02
2023-05-22T12:06:51.660Z,31.03
2023-05-22T12:07:51.367Z,31.03
2023-05-22T12:08:51.329Z,31.03
2023-05-22T12:09:51.409Z,31.00
2023-05-22T12:10:51.493Z,31.01
2023-05-22T12:11:51.293Z,31.03
2023-05-22T12:12:51.352Z,31.00
2023-05-22T12:13:51.222Z,31.02
2023-05-22T12:14:51.174Z,31.01
2023-05-22T12:15:51.170Z,30.99
2023-05-22T12:16:51.234Z,30.98
2023-05-22T12:17:51.220Z,31.04
2023-05-22T12:18:51.159Z,31.12
2023-05-22T12:19:51.071Z,31.07
2023-05-22T12:20:51.057Z,31.11
2023-05-22T12:21:51.046Z,31.17
2023-05-22T12:22:51.029Z,31.16
2023-05-22T12:23:50.988Z,31.15
2023-05-22T12:24:50.970Z,31.21
2023-05-22T12:25:50.977Z,31.17
2023-05-22T12:26:51.043Z,31.16
2023-05-22T12:27:50.955Z,31.08
2023-05-22T12:28:50.878Z,31.08
2023-05-22T12:29:50.850Z,31.15
2023-05-22T12:30:50.901Z,31.13
2023-05-22T12:31:50.860Z,31.09
2023-05-22T12:32:50.898Z,31.04
2023-05-22T12:33:50.784Z,30.93
2023-05-22T12:34:50.758Z,31.02
2023-05-22T12:35:50.726Z,31.12
2023-05-22T12:36:50.678Z,31.10
2023-05-22T12:37:50.660Z,31.11
2023-05-22T12:38:50.629Z,31.08
2023-05-22T12:39:50.586Z,31.06
2023-05-22T12:40:50.554Z,30.97
2023-05-22T12:41:50.525Z,31.05
2023-05-22T12:42:50.665Z,31.00
2023-05-22T12:43:50.447Z,30.95
2023-05-22T12:44:50.405Z,30.96
2023-05-22T12:45:50.374Z,30.94
2023-05-22T12:46:50.424Z,30.90
2023-05-22T12:47:50.399Z,30.93
2023-05-22T12:48:50.279Z,30.98
2023-05-22T12:49:50.241Z,30.94
2023-05-22T12:50:50.215Z,30.91
2023-05-22T12:51:50.160Z,30.72
2023-05-22T12:52:50.127Z,30.89
2023-05-22T12:53:50.125Z,30.92
2023-05-22T12:54:50.086Z,30.79
2023-05-22T12:55:50.048Z,30.89